createdAt,value
2019-01-16T00:06:17.701Z,1.40
2019-01-16T00:16:53.003Z,1.40
2019-01-16T00:27:19.076Z,1.40
2019-01-16T00:37:47.095Z,1.30
2019-01-16T00:48:10.827Z,1.20
2019-01-16T00:58:34.245Z,1.30
2019-01-16T01:08:57.016Z,1.10
2019-01-16T01:19:26.154Z,1.13
2019-01-16T01:29:49.671Z,1.23
2019-01-16T01:40:09.415Z,1.20
2019-01-16T01:50:45.954Z,1.13
2019-01-16T02:01:16.200Z,1.10
2019-01-16T02:11:39.189Z,1.17
2019-01-16T02:22:02.082Z,1.00
2019-01-16T02:32:25.329Z,1.00
2019-01-16T02:42:55.133Z,1.00
2019-01-16T02:53:13.532Z,0.90
2019-01-16T03:03:58.245Z,0.83
2019-01-16T03:14:22.531Z,1.00
2019-01-16T03:24:45.795Z,1.03
2019-01-16T03:35:01.964Z,1.00
2019-01-16T03:45:25.959Z,1.00
2019-01-16T03:55:51.809Z,0.70
2019-01-16T04:06:19.246Z,0.87
2019-01-16T04:16:46.345Z,1.00
2019-01-16T04:27:17.222Z,0.90
2019-01-16T04:37:44.775Z,1.00
2019-01-16T04:48:15.359Z,1.07
2019-01-16T04:58:45.375Z,0.90
2019-01-16T05:09:08.168Z,0.93
2019-01-16T05:19:41.395Z,0.70
2019-01-16T05:30:17.382Z,0.90
2019-01-16T05:40:40.338Z,0.83
2019-01-16T05:51:00.443Z,1.00
2019-01-16T06:01:24.774Z,0.70
2019-01-16T06:11:41.138Z,0.90
2019-01-16T06:22:11.626Z,0.80
2019-01-16T06:32:36.359Z,0.90
2019-01-16T06:43:06.773Z,1.00
2019-01-16T06:53:29.791Z,0.70
2019-01-16T07:03:52.681Z,0.73
2019-01-16T07:14:17.730Z,0.80
2019-01-16T07:24:42.044Z,0.70
2019-01-16T07:34:57.058Z,0.80
2019-01-16T07:45:27.878Z,0.80
2019-01-16T07:55:47.778Z,0.77
2019-01-16T08:06:24.751Z,0.93
2019-01-16T08:16:44.147Z,1.53
2019-01-16T08:27:14.867Z,1.10
2019-01-16T08:37:38.003Z,1.60
2019-01-16T08:48:00.896Z,0.93
2019-01-16T08:58:28.300Z,0.90
2019-01-16T09:09:07.049Z,1.40
2019-01-16T09:19:19.502Z,2.00
2019-01-16T09:29:53.122Z,3.17
2019-01-16T09:40:23.271Z,2.50
2019-01-16T09:50:53.816Z,2.20
2019-01-16T10:01:24.373Z,2.50
2019-01-16T10:11:42.584Z,2.40
2019-01-16T10:22:10.285Z,2.40
2019-01-16T10:32:46.525Z,2.23
2019-01-16T10:43:17.174Z,1.97
2019-01-16T10:53:56.784Z,2.30
2019-01-16T11:04:12.719Z,2.13
2019-01-16T11:14:42.823Z,1.90
2019-01-16T11:25:06.345Z,1.90
2019-01-16T11:35:29.852Z,1.90
2019-01-16T11:46:00.353Z,1.80
2019-01-16T11:56:30.588Z,1.90
2019-01-16T12:06:54.927Z,1.60
2019-01-16T12:17:24.619Z,1.83
2019-01-16T12:27:47.546Z,1.77
2019-01-16T12:38:17.600Z,1.73
2019-01-16T12:48:51.731Z,1.97
2019-01-16T12:59:16.141Z,1.50
2019-01-16T13:09:31.840Z,1.70
2019-01-16T13:20:07.969Z,1.57
2019-01-16T13:30:32.396Z,1.80
2019-01-16T13:41:12.169Z,1.57
2019-01-16T13:51:25.735Z,1.40
2019-01-16T14:01:56.777Z,1.70
2019-01-16T14:12:23.900Z,1.43
2019-01-16T14:22:59.821Z,1.60
2019-01-16T14:33:28.032Z,1.43
2019-01-16T14:43:53.999Z,1.37
2019-01-16T14:54:36.503Z,1.40
2019-01-16T15:04:57.735Z,1.20
2019-01-16T15:15:27.709Z,1.50
2019-01-16T15:25:52.858Z,1.40
2019-01-16T15:36:16.941Z,1.50
2019-01-16T15:46:39.980Z,1.50
2019-01-16T15:57:22.648Z,1.50
2019-01-16T16:07:49.754Z,1.60
2019-01-16T16:18:13.090Z,1.73
2019-01-16T16:28:40.601Z,1.80
2019-01-16T16:39:06.226Z,2.17
2019-01-16T16:49:28.593Z,3.63
2019-01-16T17:00:08.018Z,4.83
2019-01-16T17:10:32.657Z,3.90
2019-01-16T17:20:57.177Z,3.80
2019-01-16T17:31:33.638Z,4.10
2019-01-16T17:42:05.533Z,3.80
2019-01-16T17:52:38.707Z,3.57
2019-01-16T18:03:03.514Z,3.87
2019-01-16T18:13:26.845Z,3.47
2019-01-16T18:23:57.524Z,3.53
2019-01-16T18:34:18.997Z,3.73
2019-01-16T18:44:37.758Z,3.70
2019-01-16T18:55:11.930Z,3.47
2019-01-16T19:05:35.058Z,3.30
2019-01-16T19:16:00.251Z,3.30
2019-01-16T19:26:14.667Z,3.30
2019-01-16T19:36:45.234Z,3.23
2019-01-16T19:47:04.021Z,3.47
2019-01-16T19:57:27.495Z,3.30
2019-01-16T20:07:51.691Z,3.40
2019-01-16T20:18:26.165Z,3.53
2019-01-16T20:28:57.088Z,3.23
2019-01-16T20:39:20.667Z,3.60
2019-01-16T20:49:42.662Z,4.03
2019-01-16T21:00:10.498Z,4.50
2019-01-16T21:10:30.600Z,2.70
2019-01-16T21:21:01.391Z,2.80
2019-01-16T21:31:28.885Z,2.67
2019-01-16T21:41:56.540Z,2.40
2019-01-16T21:52:17.958Z,2.40
2019-01-16T22:02:42.478Z,2.43
2019-01-16T22:13:13.117Z,2.50
2019-01-16T22:23:46.633Z,2.23
2019-01-16T22:34:10.453Z,2.53
2019-01-16T22:44:47.117Z,2.63
2019-01-16T22:55:20.799Z,2.87
2019-01-16T23:05:48.060Z,2.43
2019-01-16T23:16:15.697Z,2.80
2019-01-16T23:26:38.989Z,2.70
2019-01-16T23:37:09.470Z,2.33
2019-01-16T23:47:33.163Z,2.33
2019-01-16T23:57:56.506Z,2.20
